sensor_id;sensor_type;location;lat;lon;timestamp;temperature;humidity
79694;DHT22;69165;52.714;13.200;2023-07-31T05:00:45;15.50;99.90
79694;DHT22;69165;52.714;13.200;2023-07-31T05:02:47;15.50;99.90
79694;DHT22;69165;52.714;13.200;2023-07-31T05:04:48;15.40;99.90
79694;DHT22;69165;52.714;13.200;2023-07-31T05:06:49;15.50;99.90
79694;DHT22;69165;52.714;13.200;2023-07-31T05:08:50;15.50;99.90
79694;DHT22;69165;52.714;13.200;2023-07-31T05:10:52;15.60;99.90
79694;DHT22;69165;52.714;13.200;2023-07-31T05:12:54;15.50;99.90
79694;DHT22;69165;52.714;13.200;2023-07-31T05:14:55;15.50;99.90
79694;DHT22;69165;52.714;13.200;2023-07-31T05:16:56;15.50;99.90
79694;DHT22;69165;52.714;13.200;2023-07-31T05:18:57;15.50;99.90
79694;DHT22;69165;52.714;13.200;2023-07-31T05:20:59;15.60;99.90
79694;DHT22;69165;52.714;13.200;2023-07-31T05:23:00;15.60;99.90
79694;DHT22;69165;52.714;13.200;2023-07-31T05:25:01;15.60;99.90
79694;DHT22;69165;52.714;13.200;2023-07-31T05:27:03;15.60;99.90
79694;DHT22;69165;52.714;13.200;2023-07-31T05:29:05;15.70;99.90
79694;DHT22;69165;52.714;13.200;2023-07-31T05:31:06;15.60;99.90
79694;DHT22;69165;52.714;13.200;2023-07-31T05:33:07;15.70;99.90
79694;DHT22;69165;52.714;13.200;2023-07-31T05:35:09;15.70;99.90
79694;DHT22;69165;52.714;13.200;2023-07-31T05:37:10;15.70;99.90
79694;DHT22;69165;52.714;13.200;2023-07-31T05:39:12;15.70;99.90
79694;DHT22;69165;52.714;13.200;2023-07-31T05:41:13;15.70;99.90
79694;DHT22;69165;52.714;13.200;2023-07-31T05:43:15;15.70;99.90
79694;DHT22;69165;52.714;13.200;2023-07-31T05:45:16;15.70;99.90
79694;DHT22;69165;52.714;13.200;2023-07-31T05:47:17;15.70;99.90
79694;DHT22;69165;52.714;13.200;2023-07-31T05:49:18;15.70;99.90
79694;DHT22;69165;52.714;13.200;2023-07-31T05:51:20;15.70;99.90
79694;DHT22;69165;52.714;13.200;2023-07-31T05:53:21;15.70;99.90
79694;DHT22;69165;52.714;13.200;2023-07-31T05:55:22;15.70;99.90
79694;DHT22;69165;52.714;13.200;2023-07-31T05:57:24;15.80;99.90
79694;DHT22;69165;52.714;13.200;2023-07-31T05:59:25;15.70;99.90
79694;DHT22;69165;52.714;13.200;2023-07-31T06:01:27;15.80;99.90
79694;DHT22;69165;52.714;13.200;2023-07-31T06:03:28;15.80;99.90
79694;DHT22;69165;52.714;13.200;2023-07-31T06:05:29;15.80;99.90
79694;DHT22;69165;52.714;13.200;2023-07-31T06:07:32;15.80;99.90
79694;DHT22;69165;52.714;13.200;2023-07-31T06:09:32;15.90;99.90
79694;DHT22;69165;52.714;13.200;2023-07-31T06:11:34;15.90;99.90
79694;DHT22;69165;52.714;13.200;2023-07-31T06:13:35;15.90;99.90
79694;DHT22;69165;52.714;13.200;2023-07-31T06:15:36;15.90;99.90
79694;DHT22;69165;52.714;13.200;2023-07-31T06:17:37;15.90;99.90
79694;DHT22;69165;52.714;13.200;2023-07-31T06:19:39;15.90;99.90
79694;DHT22;69165;52.714;13.200;2023-07-31T06:21:40;15.90;99.90
79694;DHT22;69165;52.714;13.200;2023-07-31T06:23:42;16.00;99.90
79694;DHT22;69165;52.714;13.200;2023-07-31T06:25:43;16.00;99.90
79694;DHT22;69165;52.714;13.200;2023-07-31T06:27:44;16.00;99.90
79694;DHT22;69165;52.714;13.200;2023-07-31T06:29:46;16.00;99.90
79694;DHT22;69165;52.714;13.200;2023-07-31T06:31:47;16.10;99.90
79694;DHT22;69165;52.714;13.200;2023-07-31T06:33:49;16.10;99.90
79694;DHT22;69165;52.714;13.200;2023-07-31T06:35:50;16.10;99.90
79694;DHT22;69165;52.714;13.200;2023-07-31T06:37:52;16.20;99.90
79694;DHT22;69165;52.714;13.200;2023-07-31T06:39:53;16.20;99.90
79694;DHT22;69165;52.714;13.200;2023-07-31T06:41:54;16.20;99.90
79694;DHT22;69165;52.714;13.200;2023-07-31T06:43:55;16.20;99.90
79694;DHT22;69165;52.714;13.200;2023-07-31T06:45:57;16.30;99.90
79694;DHT22;69165;52.714;13.200;2023-07-31T06:47:59;16.30;99.90
79694;DHT22;69165;52.714;13.200;2023-07-31T06:50:00;16.40;99.90
79694;DHT22;69165;52.714;13.200;2023-07-31T06:52:01;16.40;99.90
79694;DHT22;69165;52.714;13.200;2023-07-31T06:54:02;16.50;99.90
79694;DHT22;69165;52.714;13.200;2023-07-31T06:56:04;16.50;99.90
79694;DHT22;69165;52.714;13.200;2023-07-31T06:58:05;16.50;99.90
79694;DHT22;69165;52.714;13.200;2023-07-31T07:00:07;16.50;99.90
79694;DHT22;69165;52.714;13.200;2023-07-31T07:02:08;16.50;99.90
79694;DHT22;69165;52.714;13.200;2023-07-31T07:04:09;16.60;99.90
79694;DHT22;69165;52.714;13.200;2023-07-31T07:06:11;16.60;99.90
79694;DHT22;69165;52.714;13.200;2023-07-31T07:08:12;16.60;99.90
79694;DHT22;69165;52.714;13.200;2023-07-31T07:10:14;16.60;99.90
79694;DHT22;69165;52.714;13.200;2023-07-31T07:12:15;16.60;99.90
79694;DHT22;69165;52.714;13.200;2023-07-31T07:14:16;16.70;99.90
79694;DHT22;69165;52.714;13.200;2023-07-31T07:16:18;16.60;99.90
79694;DHT22;69165;52.714;13.200;2023-07-31T07:18:19;16.70;99.90
79694;DHT22;69165;52.714;13.200;2023-07-31T07:20:21;16.70;99.90
79694;DHT22;69165;52.714;13.200;2023-07-31T07:22:22;16.70;99.90
79694;DHT22;69165;52.714;13.200;2023-07-31T07:24:24;16.80;99.90
79694;DHT22;69165;52.714;13.200;2023-07-31T07:26:25;16.80;99.90
79694;DHT22;69165;52.714;13.200;2023-07-31T07:28:26;16.80;99.90
79694;DHT22;69165;52.714;13.200;2023-07-31T07:30:27;16.90;99.90
79694;DHT22;69165;52.714;13.200;2023-07-31T07:32:29;16.80;99.90
79694;DHT22;69165;52.714;13.200;2023-07-31T07:34:30;16.80;99.90
79694;DHT22;69165;52.714;13.200;2023-07-31T07:36:31;16.80;99.90
79694;DHT22;69165;52.714;13.200;2023-07-31T07:38:32;16.80;99.90
79694;DHT22;69165;52.714;13.200;2023-07-31T07:40:38;16.80;99.90
79694;DHT22;69165;52.714;13.200;2023-07-31T07:42:35;16.80;99.90
79694;DHT22;69165;52.714;13.200;2023-07-31T07:44:36;16.80;99.90
79694;DHT22;69165;52.714;13.200;2023-07-31T07:46:37;16.80;99.90
79694;DHT22;69165;52.714;13.200;2023-07-31T07:48:39;16.80;99.90
79694;DHT22;69165;52.714;13.200;2023-07-31T07:50:41;16.80;99.90
79694;DHT22;69165;52.714;13.200;2023-07-31T07:52:42;16.80;99.90
79694;DHT22;69165;52.714;13.200;2023-07-31T07:54:43;16.80;99.90
79694;DHT22;69165;52.714;13.200;2023-07-31T07:56:45;16.80;99.90
79694;DHT22;69165;52.714;13.200;2023-07-31T07:58:48;16.80;99.90
79694;DHT22;69165;52.714;13.200;2023-07-31T08:00:50;16.80;99.90
79694;DHT22;69165;52.714;13.200;2023-07-31T08:02:51;16.70;99.90
79694;DHT22;69165;52.714;13.200;2023-07-31T08:04:52;16.70;99.90
79694;DHT22;69165;52.714;13.200;2023-07-31T08:06:54;16.70;99.90
79694;DHT22;69165;52.714;13.200;2023-07-31T08:08:55;16.70;99.90
79694;DHT22;69165;52.714;13.200;2023-07-31T08:10:57;16.60;99.90
79694;DHT22;69165;52.714;13.200;2023-07-31T08:12:58;16.60;99.90
79694;DHT22;69165;52.714;13.200;2023-07-31T08:14:59;16.60;99.90
79694;DHT22;69165;52.714;13.200;2023-07-31T08:17:01;16.60;99.90
79694;DHT22;69165;52.714;13.200;2023-07-31T08:19:02;16.60;99.90
79694;DHT22;69165;52.714;13.200;2023-07-31T08:21:04;16.70;99.90
79694;DHT22;69165;52.714;13.200;2023-07-31T08:23:05;16.70;99.90
79694;DHT22;69165;52.714;13.200;2023-07-31T08:25:07;16.80;99.90
79694;DHT22;69165;52.714;13.200;2023-07-31T08:27:08;16.80;99.90
79694;DHT22;69165;52.714;13.200;2023-07-31T08:29:10;16.90;99.90
79694;DHT22;69165;52.714;13.200;2023-07-31T08:31:11;17.00;99.90
79694;DHT22;69165;52.714;13.200;2023-07-31T08:33:12;16.90;99.90
79694;DHT22;69165;52.714;13.200;2023-07-31T08:35:13;16.90;99.90
79694;DHT22;69165;52.714;13.200;2023-07-31T08:37:15;16.90;99.90
79694;DHT22;69165;52.714;13.200;2023-07-31T08:39:16;16.90;99.90
79694;DHT22;69165;52.714;13.200;2023-07-31T08:41:17;17.00;99.90
79694;DHT22;69165;52.714;13.200;2023-07-31T08:43:20;17.10;99.90
79694;DHT22;69165;52.714;13.200;2023-07-31T08:45:20;17.10;99.90
79694;DHT22;69165;52.714;13.200;2023-07-31T08:47:22;17.10;99.90
79694;DHT22;69165;52.714;13.200;2023-07-31T08:49:24;17.20;99.90
79694;DHT22;69165;52.714;13.200;2023-07-31T08:51:25;17.20;99.90
79694;DHT22;69165;52.714;13.200;2023-07-31T08:53:26;17.20;99.90
79694;DHT22;69165;52.714;13.200;2023-07-31T08:55:28;17.30;99.90
79694;DHT22;69165;52.714;13.200;2023-07-31T08:57:29;17.30;99.90
79694;DHT22;69165;52.714;13.200;2023-07-31T08:59:30;17.30;99.90
79694;DHT22;69165;52.714;13.200;2023-07-31T09:01:33;17.30;99.90
79694;DHT22;69165;52.714;13.200;2023-07-31T09:03:33;17.30;99.90
79694;DHT22;69165;52.714;13.200;2023-07-31T09:05:35;17.30;99.90
79694;DHT22;69165;52.714;13.200;2023-07-31T09:07:35;17.30;99.90
79694;DHT22;69165;52.714;13.200;2023-07-31T09:09:37;17.20;99.90
79694;DHT22;69165;52.714;13.200;2023-07-31T09:11:39;17.20;99.90
79694;DHT22;69165;52.714;13.200;2023-07-31T09:13:41;17.20;99.90
79694;DHT22;69165;52.714;13.200;2023-07-31T09:15:44;17.20;99.90
79694;DHT22;69165;52.714;13.200;2023-07-31T09:17:44;17.20;99.90
79694;DHT22;69165;52.714;13.200;2023-07-31T09:19:46;17.20;99.90
79694;DHT22;69165;52.714;13.200;2023-07-31T09:21:48;17.20;99.90
79694;DHT22;69165;52.714;13.200;2023-07-31T09:23:49;17.20;99.90
79694;DHT22;69165;52.714;13.200;2023-07-31T09:25:50;17.30;99.90
79694;DHT22;69165;52.714;13.200;2023-07-31T09:27:53;17.20;99.90
79694;DHT22;69165;52.714;13.200;2023-07-31T09:29:59;17.10;99.90
79694;DHT22;69165;52.714;13.200;2023-07-31T09:32:00;17.10;99.90
79694;DHT22;69165;52.714;13.200;2023-07-31T09:34:01;17.00;99.90
79694;DHT22;69165;52.714;13.200;2023-07-31T09:38:16;17.00;99.90
79694;DHT22;69165;52.714;13.200;2023-07-31T09:42:26;17.00;99.90
79694;DHT22;69165;52.714;13.200;2023-07-31T09:46:35;16.90;99.90
79694;DHT22;69165;52.714;13.200;2023-07-31T09:48:38;17.00;99.90
79694;DHT22;69165;52.714;13.200;2023-07-31T09:50:39;16.90;99.90
79694;DHT22;69165;52.714;13.200;2023-07-31T09:52:39;16.90;99.90
79694;DHT22;69165;52.714;13.200;2023-07-31T09:54:41;16.90;99.90
79694;DHT22;69165;52.714;13.200;2023-07-31T09:56:43;16.90;99.90
79694;DHT22;69165;52.714;13.200;2023-07-31T09:58:43;16.90;99.90
79694;DHT22;69165;52.714;13.200;2023-07-31T10:00:44;16.90;99.90
79694;DHT22;69165;52.714;13.200;2023-07-31T10:02:46;16.90;99.90
79694;DHT22;69165;52.714;13.200;2023-07-31T10:04:48;16.90;99.90
79694;DHT22;69165;52.714;13.200;2023-07-31T10:06:48;17.00;99.90
79694;DHT22;69165;52.714;13.200;2023-07-31T10:08:50;16.90;99.90
79694;DHT22;69165;52.714;13.200;2023-07-31T10:10:52;16.90;99.90
79694;DHT22;69165;52.714;13.200;2023-07-31T10:12:55;16.90;99.90
79694;DHT22;69165;52.714;13.200;2023-07-31T10:14:55;16.90;99.90
79694;DHT22;69165;52.714;13.200;2023-07-31T10:16:57;16.90;99.90
79694;DHT22;69165;52.714;13.200;2023-07-31T10:18:58;17.00;99.90
79694;DHT22;69165;52.714;13.200;2023-07-31T10:20:59;16.90;99.90
79694;DHT22;69165;52.714;13.200;2023-07-31T10:23:01;17.00;99.90
79694;DHT22;69165;52.714;13.200;2023-07-31T10:25:04;17.00;99.90
79694;DHT22;69165;52.714;13.200;2023-07-31T10:27:06;17.00;99.90
79694;DHT22;69165;52.714;13.200;2023-07-31T10:29:07;17.00;99.90
79694;DHT22;69165;52.714;13.200;2023-07-31T10:31:08;17.10;99.90
79694;DHT22;69165;52.714;13.200;2023-07-31T10:33:09;17.10;99.90
79694;DHT22;69165;52.714;13.200;2023-07-31T10:35:11;17.10;99.90
79694;DHT22;69165;52.714;13.200;2023-07-31T10:41:28;17.10;99.90
79694;DHT22;69165;52.714;13.200;2023-07-31T10:43:29;17.20;99.90
79694;DHT22;69165;52.714;13.200;2023-07-31T10:45:31;17.20;99.90
79694;DHT22;69165;52.714;13.200;2023-07-31T10:47:38;17.20;99.90
79694;DHT22;69165;52.714;13.200;2023-07-31T10:49:39;17.20;99.90
79694;DHT22;69165;52.714;13.200;2023-07-31T10:51:40;17.20;99.90
79694;DHT22;69165;52.714;13.200;2023-07-31T10:53:41;17.20;99.90
79694;DHT22;69165;52.714;13.200;2023-07-31T10:55:43;17.20;99.90
79694;DHT22;69165;52.714;13.200;2023-07-31T10:57:46;17.20;99.90
79694;DHT22;69165;52.714;13.200;2023-07-31T10:59:47;17.40;99.90
79694;DHT22;69165;52.714;13.200;2023-07-31T11:01:49;17.40;99.90
79694;DHT22;69165;52.714;13.200;2023-07-31T11:03:51;17.60;99.90
79694;DHT22;69165;52.714;13.200;2023-07-31T11:08:12;17.70;99.90
79694;DHT22;69165;52.714;13.200;2023-07-31T11:10:15;17.70;99.90
79694;DHT22;69165;52.714;13.200;2023-07-31T11:12:14;17.80;99.90
79694;DHT22;69165;52.714;13.200;2023-07-31T11:14:16;17.80;99.90
79694;DHT22;69165;52.714;13.200;2023-07-31T11:16:17;17.80;99.90
79694;DHT22;69165;52.714;13.200;2023-07-31T11:18:18;17.90;99.90
79694;DHT22;69165;52.714;13.200;2023-07-31T11:20:20;18.00;99.90
79694;DHT22;69165;52.714;13.200;2023-07-31T11:22:21;18.00;99.90
79694;DHT22;69165;52.714;13.200;2023-07-31T11:24:23;18.20;99.90
79694;DHT22;69165;52.714;13.200;2023-07-31T11:26:24;18.40;99.90
79694;DHT22;69165;52.714;13.200;2023-07-31T11:28:25;18.50;99.90
79694;DHT22;69165;52.714;13.200;2023-07-31T11:30:27;18.70;99.90
79694;DHT22;69165;52.714;13.200;2023-07-31T11:32:29;18.70;99.90
79694;DHT22;69165;52.714;13.200;2023-07-31T11:34:30;18.70;99.90
79694;DHT22;69165;52.714;13.200;2023-07-31T11:36:31;18.70;99.90
79694;DHT22;69165;52.714;13.200;2023-07-31T11:38:33;18.70;99.90
79694;DHT22;69165;52.714;13.200;2023-07-31T11:42:41;18.70;99.90
79694;DHT22;69165;52.714;13.200;2023-07-31T11:44:43;18.70;99.90
79694;DHT22;69165;52.714;13.200;2023-07-31T11:46:44;18.70;99.90
79694;DHT22;69165;52.714;13.200;2023-07-31T11:48:45;18.70;99.90
79694;DHT22;69165;52.714;13.200;2023-07-31T11:50:47;18.70;99.90
79694;DHT22;69165;52.714;13.200;2023-07-31T11:52:48;18.70;99.90
79694;DHT22;69165;52.714;13.200;2023-07-31T11:54:49;18.70;99.90
79694;DHT22;69165;52.714;13.200;2023-07-31T11:56:50;18.70;99.90
79694;DHT22;69165;52.714;13.200;2023-07-31T11:58:54;18.70;99.90
79694;DHT22;69165;52.714;13.200;2023-07-31T12:00:54;18.70;99.90
79694;DHT22;69165;52.714;13.200;2023-07-31T12:02:55;18.70;99.90
79694;DHT22;69165;52.714;13.200;2023-07-31T12:04:56;18.70;99.90
79694;DHT22;69165;52.714;13.200;2023-07-31T12:07:00;18.70;99.90
79694;DHT22;69165;52.714;13.200;2023-07-31T12:09:02;18.70;99.90
79694;DHT22;69165;52.714;13.200;2023-07-31T12:11:04;18.60;99.90
79694;DHT22;69165;52.714;13.200;2023-07-31T12:13:06;18.60;99.90
79694;DHT22;69165;52.714;13.200;2023-07-31T12:15:13;18.60;99.90
79694;DHT22;69165;52.714;13.200;2023-07-31T12:17:08;18.60;99.90
79694;DHT22;69165;52.714;13.200;2023-07-31T12:19:09;18.50;99.90
79694;DHT22;69165;52.714;13.200;2023-07-31T12:21:10;18.60;99.90
79694;DHT22;69165;52.714;13.200;2023-07-31T12:23:14;18.60;99.90
79694;DHT22;69165;52.714;13.200;2023-07-31T12:25:15;18.60;99.90
79694;DHT22;69165;52.714;13.200;2023-07-31T12:27:16;18.70;99.90
79694;DHT22;69165;52.714;13.200;2023-07-31T12:29:18;18.80;99.90
79694;DHT22;69165;52.714;13.200;2023-07-31T12:31:21;18.80;99.90
79694;DHT22;69165;52.714;13.200;2023-07-31T12:33:22;18.90;99.90
79694;DHT22;69165;52.714;13.200;2023-07-31T12:35:24;18.90;99.90
79694;DHT22;69165;52.714;13.200;2023-07-31T12:37:26;18.90;99.90
79694;DHT22;69165;52.714;13.200;2023-07-31T12:39:27;18.90;99.90
79694;DHT22;69165;52.714;13.200;2023-07-31T12:41:28;18.90;99.90
79694;DHT22;69165;52.714;13.200;2023-07-31T12:43:29;18.80;99.90
79694;DHT22;69165;52.714;13.200;2023-07-31T12:45:31;18.70;99.90
79694;DHT22;69165;52.714;13.200;2023-07-31T12:47:32;18.60;99.90
79694;DHT22;69165;52.714;13.200;2023-07-31T12:49:33;18.60;99.90
79694;DHT22;69165;52.714;13.200;2023-07-31T12:51:34;18.50;99.90
79694;DHT22;69165;52.714;13.200;2023-07-31T12:53:36;18.50;99.90
79694;DHT22;69165;52.714;13.200;2023-07-31T12:55:38;18.40;99.90
79694;DHT22;69165;52.714;13.200;2023-07-31T12:57:39;18.40;99.90
79694;DHT22;69165;52.714;13.200;2023-07-31T12:59:40;18.40;99.90
79694;DHT22;69165;52.714;13.200;2023-07-31T13:01:41;18.50;99.90
79694;DHT22;69165;52.714;13.200;2023-07-31T13:03:42;18.60;99.90
79694;DHT22;69165;52.714;13.200;2023-07-31T13:05:44;18.60;99.90
79694;DHT22;69165;52.714;13.200;2023-07-31T13:07:46;18.70;99.90
79694;DHT22;69165;52.714;13.200;2023-07-31T13:09:47;18.70;99.90
79694;DHT22;69165;52.714;13.200;2023-07-31T13:11:48;18.80;99.90
79694;DHT22;69165;52.714;13.200;2023-07-31T13:13:50;18.90;99.90
79694;DHT22;69165;52.714;13.200;2023-07-31T13:15:51;18.90;99.90
79694;DHT22;69165;52.714;13.200;2023-07-31T13:17:52;19.00;99.90
79694;DHT22;69165;52.714;13.200;2023-07-31T13:19:53;19.00;99.90
79694;DHT22;69165;52.714;13.200;2023-07-31T13:21:55;19.20;99.90
79694;DHT22;69165;52.714;13.200;2023-07-31T13:23:57;19.20;99.90
79694;DHT22;69165;52.714;13.200;2023-07-31T13:25:58;19.20;99.90
79694;DHT22;69165;52.714;13.200;2023-07-31T13:27:59;19.20;99.90
79694;DHT22;69165;52.714;13.200;2023-07-31T13:30:00;19.30;99.90
79694;DHT22;69165;52.714;13.200;2023-07-31T13:32:02;19.30;99.90
79694;DHT22;69165;52.714;13.200;2023-07-31T13:34:04;19.30;99.90
79694;DHT22;69165;52.714;13.200;2023-07-31T13:36:05;19.40;99.90
79694;DHT22;69165;52.714;13.200;2023-07-31T13:38:07;19.50;99.90
79694;DHT22;69165;52.714;13.200;2023-07-31T13:40:09;19.50;99.90
79694;DHT22;69165;52.714;13.200;2023-07-31T13:42:10;19.50;99.90
79694;DHT22;69165;52.714;13.200;2023-07-31T13:44:11;19.50;99.90
79694;DHT22;69165;52.714;13.200;2023-07-31T13:46:13;19.50;99.90
79694;DHT22;69165;52.714;13.200;2023-07-31T13:48:14;19.50;99.90
79694;DHT22;69165;52.714;13.200;2023-07-31T13:50:16;19.50;99.90
79694;DHT22;69165;52.714;13.200;2023-07-31T13:52:17;19.50;99.90
79694;DHT22;69165;52.714;13.200;2023-07-31T13:54:19;19.50;99.90
79694;DHT22;69165;52.714;13.200;2023-07-31T13:56:20;19.50;99.90
79694;DHT22;69165;52.714;13.200;2023-07-31T13:58:22;19.50;99.90
79694;DHT22;69165;52.714;13.200;2023-07-31T14:00:23;19.50;99.90
79694;DHT22;69165;52.714;13.200;2023-07-31T14:02:24;19.50;99.90
79694;DHT22;69165;52.714;13.200;2023-07-31T14:04:26;19.50;99.90
79694;DHT22;69165;52.714;13.200;2023-07-31T14:06:28;19.40;99.90
79694;DHT22;69165;52.714;13.200;2023-07-31T14:08:29;19.40;99.90
79694;DHT22;69165;52.714;13.200;2023-07-31T14:10:31;19.40;99.90
79694;DHT22;69165;52.714;13.200;2023-07-31T14:12:32;19.40;99.90
79694;DHT22;69165;52.714;13.200;2023-07-31T14:14:33;19.40;99.90
79694;DHT22;69165;52.714;13.200;2023-07-31T14:16:35;19.40;99.90
79694;DHT22;69165;52.714;13.200;2023-07-31T14:18:36;19.40;99.90
79694;DHT22;69165;52.714;13.200;2023-07-31T14:20:37;19.40;99.90
79694;DHT22;69165;52.714;13.200;2023-07-31T14:22:39;19.40;99.90
79694;DHT22;69165;52.714;13.200;2023-07-31T14:24:41;19.40;99.90
79694;DHT22;69165;52.714;13.200;2023-07-31T14:26:42;19.40;99.90
79694;DHT22;69165;52.714;13.200;2023-07-31T14:28:43;19.30;99.90
79694;DHT22;69165;52.714;13.200;2023-07-31T14:30:45;19.30;99.90
79694;DHT22;69165;52.714;13.200;2023-07-31T14:32:47;19.30;99.90
79694;DHT22;69165;52.714;13.200;2023-07-31T14:34:49;19.30;99.90
79694;DHT22;69165;52.714;13.200;2023-07-31T14:36:50;19.30;99.90
79694;DHT22;69165;52.714;13.200;2023-07-31T14:38:51;19.40;99.90
79694;DHT22;69165;52.714;13.200;2023-07-31T14:40:52;19.40;99.90
79694;DHT22;69165;52.714;13.200;2023-07-31T14:42:53;19.40;99.90
79694;DHT22;69165;52.714;13.200;2023-07-31T14:44:55;19.30;99.90
79694;DHT22;69165;52.714;13.200;2023-07-31T14:46:56;19.40;99.90
79694;DHT22;69165;52.714;13.200;2023-07-31T14:48:58;19.40;99.90
79694;DHT22;69165;52.714;13.200;2023-07-31T14:51:00;19.40;99.90
79694;DHT22;69165;52.714;13.200;2023-07-31T14:53:00;19.40;99.90
79694;DHT22;69165;52.714;13.200;2023-07-31T14:55:02;19.40;99.90
79694;DHT22;69165;52.714;13.200;2023-07-31T14:57:03;19.40;99.90
79694;DHT22;69165;52.714;13.200;2023-07-31T14:59:04;19.40;99.90
79694;DHT22;69165;52.714;13.200;2023-07-31T15:01:06;19.40;99.90
79694;DHT22;69165;52.714;13.200;2023-07-31T15:03:07;19.50;99.90
79694;DHT22;69165;52.714;13.200;2023-07-31T15:05:09;19.60;99.90
79694;DHT22;69165;52.714;13.200;2023-07-31T15:07:11;19.60;99.90
79694;DHT22;69165;52.714;13.200;2023-07-31T15:09:12;19.60;99.90
79694;DHT22;69165;52.714;13.200;2023-07-31T15:11:14;19.60;99.90
79694;DHT22;69165;52.714;13.200;2023-07-31T15:13:15;19.60;99.90
79694;DHT22;69165;52.714;13.200;2023-07-31T15:15:16;19.60;99.90
79694;DHT22;69165;52.714;13.200;2023-07-31T15:17:17;19.60;99.90
79694;DHT22;69165;52.714;13.200;2023-07-31T15:19:19;19.60;99.90
79694;DHT22;69165;52.714;13.200;2023-07-31T15:21:21;19.60;99.90
79694;DHT22;69165;52.714;13.200;2023-07-31T15:23:22;19.60;99.90
79694;DHT22;69165;52.714;13.200;2023-07-31T15:25:23;19.70;99.90
79694;DHT22;69165;52.714;13.200;2023-07-31T15:27:24;19.70;99.90
79694;DHT22;69165;52.714;13.200;2023-07-31T15:29:27;19.60;99.90
79694;DHT22;69165;52.714;13.200;2023-07-31T15:31:28;19.60;99.90
79694;DHT22;69165;52.714;13.200;2023-07-31T15:33:29;19.60;99.90
79694;DHT22;69165;52.714;13.200;2023-07-31T15:35:30;19.60;99.90
79694;DHT22;69165;52.714;13.200;2023-07-31T15:37:31;19.60;99.90
79694;DHT22;69165;52.714;13.200;2023-07-31T15:39:33;19.60;99.90
79694;DHT22;69165;52.714;13.200;2023-07-31T15:41:35;19.60;99.90
79694;DHT22;69165;52.714;13.200;2023-07-31T15:43:36;19.60;99.90
79694;DHT22;69165;52.714;13.200;2023-07-31T15:45:37;19.60;99.90
79694;DHT22;69165;52.714;13.200;2023-07-31T15:47:39;19.50;99.90
79694;DHT22;69165;52.714;13.200;2023-07-31T15:49:40;19.50;99.90
79694;DHT22;69165;52.714;13.200;2023-07-31T15:51:42;19.50;99.90
79694;DHT22;69165;52.714;13.200;2023-07-31T15:53:43;19.50;99.90
79694;DHT22;69165;52.714;13.200;2023-07-31T15:55:44;19.40;99.90
79694;DHT22;69165;52.714;13.200;2023-07-31T15:57:45;19.40;99.90
79694;DHT22;69165;52.714;13.200;2023-07-31T15:59:48;19.30;99.90
79694;DHT22;69165;52.714;13.200;2023-07-31T16:01:49;19.30;99.90
79694;DHT22;69165;52.714;13.200;2023-07-31T16:03:50;19.30;99.90
79694;DHT22;69165;52.714;13.200;2023-07-31T16:05:51;19.10;99.90
79694;DHT22;69165;52.714;13.200;2023-07-31T16:07:53;19.00;99.90
79694;DHT22;69165;52.714;13.200;2023-07-31T16:09:55;18.80;99.90
79694;DHT22;69165;52.714;13.200;2023-07-31T16:11:56;18.80;99.90
79694;DHT22;69165;52.714;13.200;2023-07-31T16:13:57;18.80;99.90
79694;DHT22;69165;52.714;13.200;2023-07-31T16:15:59;18.70;99.90
79694;DHT22;69165;52.714;13.200;2023-07-31T16:18:00;18.60;99.90
79694;DHT22;69165;52.714;13.200;2023-07-31T16:20:02;18.70;99.90
79694;DHT22;69165;52.714;13.200;2023-07-31T16:22:03;18.70;99.90
79694;DHT22;69165;52.714;13.200;2023-07-31T16:24:04;18.70;99.90
79694;DHT22;69165;52.714;13.200;2023-07-31T16:26:06;18.70;99.90
79694;DHT22;69165;52.714;13.200;2023-07-31T16:28:08;18.70;99.90
79694;DHT22;69165;52.714;13.200;2023-07-31T16:30:09;18.70;99.90
79694;DHT22;69165;52.714;13.200;2023-07-31T16:32:10;18.70;99.90
79694;DHT22;69165;52.714;13.200;2023-07-31T16:34:12;18.70;99.90
79694;DHT22;69165;52.714;13.200;2023-07-31T16:36:14;18.70;99.90
79694;DHT22;69165;52.714;13.200;2023-07-31T16:38:15;18.70;99.90
79694;DHT22;69165;52.714;13.200;2023-07-31T16:40:16;18.70;99.90
79694;DHT22;69165;52.714;13.200;2023-07-31T16:42:18;18.70;99.90
79694;DHT22;69165;52.714;13.200;2023-07-31T16:44:19;18.80;99.90
79694;DHT22;69165;52.714;13.200;2023-07-31T16:46:20;18.80;99.90
79694;DHT22;69165;52.714;13.200;2023-07-31T16:48:22;18.80;99.90
79694;DHT22;69165;52.714;13.200;2023-07-31T16:50:23;18.80;99.90
79694;DHT22;69165;52.714;13.200;2023-07-31T16:52:25;18.80;99.90
79694;DHT22;69165;52.714;13.200;2023-07-31T16:54:27;18.80;99.90
79694;DHT22;69165;52.714;13.200;2023-07-31T16:56:28;18.80;99.90
79694;DHT22;69165;52.714;13.200;2023-07-31T16:58:29;18.80;99.90
79694;DHT22;69165;52.714;13.200;2023-07-31T17:00:31;18.70;99.90
79694;DHT22;69165;52.714;13.200;2023-07-31T17:02:33;18.70;99.90
79694;DHT22;69165;52.714;13.200;2023-07-31T17:04:34;18.70;99.90
79694;DHT22;69165;52.714;13.200;2023-07-31T17:06:36;18.70;99.90
79694;DHT22;69165;52.714;13.200;2023-07-31T17:08:37;18.70;99.90
79694;DHT22;69165;52.714;13.200;2023-07-31T17:10:38;18.60;99.90
79694;DHT22;69165;52.714;13.200;2023-07-31T17:12:40;18.60;99.90
79694;DHT22;69165;52.714;13.200;2023-07-31T17:14:41;18.60;99.90
79694;DHT22;69165;52.714;13.200;2023-07-31T17:16:42;18.60;99.90
79694;DHT22;69165;52.714;13.200;2023-07-31T17:18:43;18.60;99.90
79694;DHT22;69165;52.714;13.200;2023-07-31T17:20:45;18.50;99.90
79694;DHT22;69165;52.714;13.200;2023-07-31T17:22:46;18.60;99.90
79694;DHT22;69165;52.714;13.200;2023-07-31T17:24:48;18.60;99.90
79694;DHT22;69165;52.714;13.200;2023-07-31T17:26:49;18.60;99.90
79694;DHT22;69165;52.714;13.200;2023-07-31T17:28:51;18.60;99.90
79694;DHT22;69165;52.714;13.200;2023-07-31T17:30:52;18.60;99.90
79694;DHT22;69165;52.714;13.200;2023-07-31T17:32:54;18.60;99.90
79694;DHT22;69165;52.714;13.200;2023-07-31T17:34:55;18.50;99.90
79694;DHT22;69165;52.714;13.200;2023-07-31T17:36:56;18.50;99.90
79694;DHT22;69165;52.714;13.200;2023-07-31T17:38:57;18.40;99.90
79694;DHT22;69165;52.714;13.200;2023-07-31T17:40:59;18.40;99.90
79694;DHT22;69165;52.714;13.200;2023-07-31T17:43:00;18.30;99.90
79694;DHT22;69165;52.714;13.200;2023-07-31T17:45:01;18.30;99.90
79694;DHT22;69165;52.714;13.200;2023-07-31T17:47:03;18.20;99.90
79694;DHT22;69165;52.714;13.200;2023-07-31T17:49:05;18.20;99.90